createdAt,value
2023-04-20T04:17:08.064Z,100220.25
2023-04-20T04:20:13.481Z,100222.81
2023-04-20T04:23:16.621Z,100228.72
2023-04-20T04:26:24.602Z,100227.50
2023-04-20T04:29:27.515Z,100228.03
2023-04-20T04:32:34.560Z,100229.41
2023-04-20T04:35:43.963Z,100220.16
2023-04-20T04:38:48.014Z,100219.56
2023-04-20T04:41:51.262Z,100219.09
2023-04-20T04:44:56.307Z,100215.97
2023-04-20T04:47:59.924Z,100221.03
2023-04-20T04:51:03.501Z,100220.06
2023-04-20T04:54:06.339Z,100222.97
2023-04-20T04:57:09.190Z,100224.66
2023-04-20T05:00:12.803Z,100230.91
2023-04-20T05:03:16.350Z,100231.13
2023-04-20T05:06:18.970Z,100233.91
2023-04-20T05:09:21.743Z,100231.00
2023-04-20T05:12:25.766Z,100232.16
2023-04-20T05:15:28.684Z,100233.41
2023-04-20T05:18:31.700Z,100237.31
2023-04-20T05:21:34.470Z,100238.56
2023-04-20T05:24:37.299Z,100246.16
2023-04-20T05:27:40.404Z,100247.94
2023-04-20T05:30:43.172Z,100252.19
2023-04-20T05:33:46.451Z,100249.16
2023-04-20T05:36:49.112Z,100257.37
2023-04-20T05:39:51.936Z,100266.66
2023-04-20T05:42:54.751Z,100260.91
2023-04-20T05:45:57.664Z,100260.28
2023-04-20T05:49:00.430Z,100261.88
2023-04-20T05:52:03.476Z,100261.44
2023-04-20T05:55:06.344Z,100269.84
2023-04-20T05:58:09.130Z,100274.25
2023-04-20T06:01:11.773Z,100278.66
2023-04-20T06:04:14.927Z,100275.25
2023-04-20T06:07:17.763Z,100274.31
2023-04-20T06:10:21.013Z,100278.69
2023-04-20T06:13:24.063Z,100275.41
2023-04-20T06:16:27.215Z,100273.75
2023-04-20T06:19:29.814Z,100283.44
2023-04-20T06:22:32.620Z,100280.87
2023-04-20T06:25:39.149Z,100277.66
2023-04-20T06:28:43.105Z,100280.13
2023-04-20T06:31:46.000Z,100283.75
2023-04-20T06:34:48.939Z,100281.91
2023-04-20T06:37:51.574Z,100282.31
2023-04-20T06:40:54.525Z,100281.03
2023-04-20T06:43:57.236Z,100281.69
2023-04-20T06:47:00.218Z,100279.16
2023-04-20T06:50:07.480Z,100280.47
2023-04-20T06:53:10.540Z,100277.78
2023-04-20T06:56:13.164Z,100281.22
2023-04-20T06:59:18.231Z,100279.81
2023-04-20T07:02:21.261Z,100281.50
2023-04-20T07:05:24.233Z,100280.97
2023-04-20T07:08:26.818Z,100287.78
2023-04-20T07:11:29.662Z,100277.94
2023-04-20T07:14:32.575Z,100279.28
2023-04-20T07:21:27.206Z,100279.53
2023-04-20T07:24:30.066Z,100277.91
2023-04-20T07:27:37.655Z,100278.94
2023-04-20T07:30:40.429Z,100285.78
2023-04-20T07:33:43.844Z,100280.28
2023-04-20T07:36:46.677Z,100283.75
2023-04-20T07:39:51.336Z,100290.88
2023-04-20T07:42:54.241Z,100285.47
2023-04-20T07:45:56.806Z,100283.00
2023-04-20T07:48:59.962Z,100285.97
2023-04-20T07:52:15.030Z,100278.63
2023-04-20T07:55:19.621Z,100280.34
2023-04-20T07:58:22.147Z,100286.62
2023-04-20T08:01:28.159Z,100281.66
2023-04-20T08:04:31.462Z,100282.69
2023-04-20T08:07:34.186Z,100287.69
2023-04-20T08:10:37.343Z,100285.94
2023-04-20T08:13:41.338Z,100284.53
2023-04-20T08:16:44.441Z,100285.66
2023-04-20T08:19:47.159Z,100281.66
2023-04-20T08:22:51.039Z,100283.28
2023-04-20T08:25:54.869Z,100288.97
2023-04-20T08:28:57.983Z,100279.28
2023-04-20T08:32:00.706Z,100283.59
2023-04-20T08:35:04.993Z,100280.00
2023-04-20T08:38:07.532Z,100286.00
2023-04-20T08:41:14.948Z,100276.44
2023-04-20T08:44:17.649Z,100273.09
2023-04-20T08:47:21.440Z,100271.41
2023-04-20T08:50:24.716Z,100270.50
2023-04-20T08:53:27.677Z,100277.87
2023-04-20T08:56:44.104Z,100278.63
2023-04-20T08:59:48.266Z,100280.50
2023-04-20T09:02:55.069Z,100275.25
2023-04-20T09:05:58.073Z,100274.72
2023-04-20T09:09:00.648Z,100279.47
2023-04-20T09:12:06.897Z,100275.72
2023-04-20T09:15:10.823Z,100273.88
2023-04-20T09:18:15.129Z,100265.25
2023-04-20T09:21:17.650Z,100272.53
2023-04-20T09:24:22.084Z,100266.38
2023-04-20T09:27:26.332Z,100271.50
2023-04-20T09:30:38.235Z,100268.53
2023-04-20T09:33:41.996Z,100261.88
2023-04-20T09:36:47.276Z,100260.31
2023-04-20T09:39:50.412Z,100269.03
2023-04-20T09:42:54.963Z,100272.22
2023-04-20T09:45:58.049Z,100268.91
2023-04-20T09:49:04.034Z,100262.69
2023-04-20T09:52:06.645Z,100267.56
2023-04-20T09:55:11.195Z,100262.34
2023-04-20T09:58:14.082Z,100258.97
2023-04-20T10:01:17.390Z,100263.56
2023-04-20T10:04:20.507Z,100266.06
2023-04-20T10:07:27.834Z,100264.37
2023-04-20T10:10:31.289Z,100266.91
2023-04-20T10:13:34.184Z,100261.50
2023-04-20T10:16:37.180Z,100257.13
2023-04-20T10:19:42.226Z,100238.66
2023-04-20T10:22:45.114Z,100238.59
2023-04-20T10:25:59.040Z,100240.69
2023-04-20T10:29:01.910Z,100240.87
2023-04-20T10:32:05.582Z,100243.50
2023-04-20T10:35:11.200Z,100233.59
2023-04-20T10:38:34.249Z,100231.38
2023-04-20T10:41:37.284Z,100234.69
2023-04-20T10:44:54.283Z,100237.66
2023-04-20T10:47:57.150Z,100220.34
2023-04-20T10:51:10.077Z,100223.72
2023-04-20T10:54:12.951Z,100219.53
2023-04-20T10:57:18.334Z,100209.91
2023-04-20T11:00:24.977Z,100210.72
2023-04-20T11:03:29.561Z,100208.41
2023-04-20T11:06:33.330Z,100199.66
2023-04-20T11:09:38.417Z,100212.47
2023-04-20T11:12:41.292Z,100203.91
2023-04-20T11:15:43.853Z,100201.66
2023-04-20T11:18:51.457Z,100206.50
2023-04-20T11:21:54.552Z,100201.88
2023-04-20T11:25:05.639Z,100196.56
2023-04-20T11:28:09.000Z,100193.97
2023-04-20T11:31:18.629Z,100183.28
2023-04-20T11:34:22.531Z,100196.91
2023-04-20T11:37:25.462Z,100188.66
2023-04-20T11:40:28.542Z,100195.56
2023-04-20T11:43:32.661Z,100185.00
2023-04-20T11:46:37.558Z,100196.66
2023-04-20T11:49:40.681Z,100182.97
2023-04-20T11:52:44.024Z,100181.12
2023-04-20T11:55:46.867Z,100187.28
2023-04-20T11:58:49.895Z,100185.59
2023-04-20T12:01:52.797Z,100179.78
2023-04-20T12:04:55.934Z,100186.78
2023-04-20T12:07:58.617Z,100184.59
2023-04-20T12:11:01.557Z,100171.78
2023-04-20T12:14:05.160Z,100181.59
2023-04-20T12:17:08.071Z,100177.13
2023-04-20T12:20:14.401Z,100168.16
2023-04-20T12:23:17.348Z,100177.91
2023-04-20T12:26:19.925Z,100167.84
2023-04-20T12:29:22.944Z,100174.41
2023-04-20T12:32:25.447Z,100161.75
2023-04-20T12:35:28.363Z,100157.84
2023-04-20T12:38:31.568Z,100167.00
2023-04-20T12:41:34.839Z,100160.38
2023-04-20T12:44:37.499Z,100164.44
2023-04-20T12:47:40.471Z,100156.84
2023-04-20T12:50:43.071Z,100155.69
2023-04-20T12:53:46.005Z,100153.94
2023-04-20T12:56:48.431Z,100155.19
2023-04-20T12:59:51.179Z,100154.28
2023-04-20T13:02:54.561Z,100146.88
2023-04-20T13:05:58.985Z,100141.66
2023-04-20T13:09:03.938Z,100148.47
2023-04-20T13:12:06.940Z,100137.41
2023-04-20T13:15:10.200Z,100146.25
2023-04-20T13:18:15.261Z,100140.06
2023-04-20T13:21:18.148Z,100133.16
2023-04-20T13:24:21.085Z,100124.69
2023-04-20T13:27:23.672Z,100139.56
2023-04-20T13:30:26.932Z,100121.81
2023-04-20T13:33:29.510Z,100123.47
2023-04-20T13:36:33.248Z,100128.44
2023-04-20T13:39:36.049Z,100128.00
2023-04-20T13:42:39.060Z,100132.84
2023-04-20T13:45:42.027Z,100123.94
2023-04-20T13:48:45.488Z,100122.50
2023-04-20T13:51:48.399Z,100115.94
2023-04-20T13:54:51.360Z,100117.44
2023-04-20T13:57:53.886Z,100115.69
2023-04-20T14:00:56.844Z,100101.63
2023-04-20T14:03:59.779Z,100115.59
2023-04-20T14:07:02.455Z,100107.16
2023-04-20T14:10:06.152Z,100101.22
2023-04-20T14:13:08.805Z,100103.06
2023-04-20T14:16:14.470Z,100097.63
2023-04-20T14:19:17.251Z,100098.66
2023-04-20T14:22:20.280Z,100092.38
2023-04-20T14:25:22.909Z,100095.44
2023-04-20T14:28:25.959Z,100087.53
2023-04-20T14:31:28.775Z,100086.47
2023-04-20T14:34:31.803Z,100089.84
2023-04-20T14:37:34.401Z,100084.09
2023-04-20T14:40:37.627Z,100082.13
2023-04-20T14:43:40.849Z,100082.25
2023-04-20T14:46:43.763Z,100082.94
2023-04-20T14:49:46.440Z,100086.50
2023-04-20T14:52:49.352Z,100083.84
2023-04-20T14:55:51.958Z,100072.31
2023-04-20T14:58:55.839Z,100069.69
2023-04-20T15:02:02.826Z,100070.09
2023-04-20T15:05:10.278Z,100066.41
2023-04-20T15:08:13.282Z,100070.53
2023-04-20T15:11:16.027Z,100063.87
2023-04-20T15:14:18.701Z,100069.81
2023-04-20T15:17:21.588Z,100064.69
2023-04-20T15:20:24.348Z,100078.00
2023-04-20T15:23:27.172Z,100075.41
2023-04-20T15:26:29.971Z,100069.88
2023-04-20T15:29:33.429Z,100079.38
2023-04-20T15:32:36.077Z,100075.16
